DAL1130 KATL-KMCI
Flight info
| Callsign | DAL1130 |
|---|---|
| Flight time | N/A |
| Altitude | 32000 |
| Route | CUTTN2 HANKO MEMFS LUKKY J41 ZAVEL KRTNY MHOMS3 |
| Aircraft | B739/M-SDE2E3FGHIRWXY/LB1 |
Departure
| Time | 2026-05-08 00:50 |
|---|---|
| Airport | Hartsfield Jackson Atlanta International Airport (KATL) |
Arrival
| Time | N/A |
|---|---|
| Airport | Kansas City International Airport (KMCI) |
| Time | Latitude | Longitude | Altitude | Speed | Heading |
|---|---|---|---|---|---|
| 2026-05-08 00:27 | 33.64040 | -84.43652 | 1007 ft | 0 kts | 100° |
| 2026-05-08 00:38 | 33.64042 | -84.43670 | 1007 ft | 0 kts | 100° |
| 2026-05-08 00:38 | 33.64044 | -84.43683 | 1007 ft | 2 kts | 89° |
| 2026-05-08 00:38 | 33.64041 | -84.43700 | 1007 ft | 2 kts | 69° |
| 2026-05-08 00:38 | 33.64034 | -84.43716 | 1007 ft | 2 kts | 51° |
| 2026-05-08 00:39 | 33.64027 | -84.43724 | 1007 ft | 0 kts | 39° |
| 2026-05-08 00:39 | 33.64022 | -84.43729 | 1007 ft | 0 kts | 38° |
| 2026-05-08 00:40 | 33.64023 | -84.43728 | 1007 ft | 0 kts | 38° |
| 2026-05-08 00:40 | 33.64048 | -84.43722 | 1007 ft | 6 kts | 358° |
| 2026-05-08 00:41 | 33.64100 | -84.43721 | 1007 ft | 9 kts | 1° |
| 2026-05-08 00:41 | 33.64183 | -84.43721 | 1007 ft | 14 kts | 359° |
| 2026-05-08 00:41 | 33.64279 | -84.43721 | 1007 ft | 13 kts | 359° |
| 2026-05-08 00:41 | 33.64374 | -84.43722 | 1007 ft | 14 kts | 0° |
| 2026-05-08 00:42 | 33.64455 | -84.43680 | 1007 ft | 13 kts | 74° |
| 2026-05-08 00:42 | 33.64460 | -84.43563 | 1007 ft | 17 kts | 90° |
| 2026-05-08 00:42 | 33.64460 | -84.43398 | 1007 ft | 20 kts | 89° |
| 2026-05-08 00:42 | 33.64460 | -84.43233 | 1007 ft | 19 kts | 91° |
| 2026-05-08 00:43 | 33.64460 | -84.43091 | 1007 ft | 16 kts | 90° |
| 2026-05-08 00:43 | 33.64460 | -84.42960 | 1007 ft | 15 kts | 90° |
| 2026-05-08 00:43 | 33.64460 | -84.42813 | 1007 ft | 17 kts | 89° |
| 2026-05-08 00:43 | 33.64469 | -84.42668 | 1003 ft | 19 kts | 90° |
| 2026-05-08 00:44 | 33.64469 | -84.42497 | 992 ft | 19 kts | 91° |
| 2026-05-08 00:44 | 33.64469 | -84.42417 | 987 ft | 0 kts | 90° |
| 2026-05-08 00:44 | 33.64469 | -84.42406 | 987 ft | 5 kts | 90° |
| 2026-05-08 00:45 | 33.64469 | -84.42319 | 985 ft | 13 kts | 90° |
| 2026-05-08 00:45 | 33.64504 | -84.42191 | 985 ft | 19 kts | 60° |
| 2026-05-08 00:45 | 33.64543 | -84.42042 | 984 ft | 18 kts | 90° |
| 2026-05-08 00:45 | 33.64543 | -84.41869 | 978 ft | 24 kts | 90° |
| 2026-05-08 00:46 | 33.64543 | -84.41650 | 972 ft | 27 kts | 90° |
| 2026-05-08 00:46 | 33.64542 | -84.41449 | 977 ft | 24 kts | 89° |
| 2026-05-08 00:46 | 33.64543 | -84.41252 | 988 ft | 23 kts | 90° |
| 2026-05-08 00:46 | 33.64543 | -84.41085 | 997 ft | 17 kts | 91° |
| 2026-05-08 00:47 | 33.64543 | -84.40956 | 1002 ft | 13 kts | 90° |
| 2026-05-08 00:47 | 33.64543 | -84.40878 | 1004 ft | 8 kts | 90° |
| 2026-05-08 00:47 | 33.64563 | -84.40780 | 1004 ft | 15 kts | 66° |
| 2026-05-08 00:47 | 33.64570 | -84.40653 | 1004 ft | 14 kts | 90° |
| 2026-05-08 00:48 | 33.64581 | -84.40587 | 1004 ft | 0 kts | 50° |
| 2026-05-08 00:48 | 33.64582 | -84.40585 | 1004 ft | 1 kts | 49° |
| 2026-05-08 00:48 | 33.64619 | -84.40569 | 1004 ft | 9 kts | 2° |
| 2026-05-08 00:49 | 33.64676 | -84.40593 | 1004 ft | 8 kts | 288° |
| 2026-05-08 00:49 | 33.64680 | -84.40634 | 1004 ft | 0 kts | 271° |
| 2026-05-08 00:49 | 33.64680 | -84.40646 | 1004 ft | 11 kts | 271° |
| 2026-05-08 00:49 | 33.64681 | -84.41058 | 1000 ft | 85 kts | 270° |
| 2026-05-08 00:50 | 33.64680 | -84.42011 | 979 ft | 146 kts | 270° |
| 2026-05-08 00:50 | 33.64668 | -84.43355 | 1282 ft | 170 kts | 270° |
| 2026-05-08 00:50 | 33.64643 | -84.44744 | 1988 ft | 173 kts | 272° |
| 2026-05-08 00:50 | 33.64711 | -84.46207 | 2562 ft | 183 kts | 283° |
| 2026-05-08 00:51 | 33.65023 | -84.47714 | 3102 ft | 192 kts | 287° |
| 2026-05-08 00:51 | 33.65362 | -84.49323 | 3543 ft | 208 kts | 285° |
| 2026-05-08 00:51 | 33.65695 | -84.51101 | 4040 ft | 224 kts | 284° |
| 2026-05-08 00:51 | 33.66031 | -84.52964 | 4606 ft | 237 kts | 283° |
| 2026-05-08 00:52 | 33.66397 | -84.54960 | 5203 ft | 248 kts | 283° |
| 2026-05-08 00:52 | 33.66763 | -84.56934 | 6049 ft | 248 kts | 283° |
| 2026-05-08 00:52 | 33.67128 | -84.58925 | 6945 ft | 245 kts | 282° |
| 2026-05-08 00:52 | 33.67477 | -84.60944 | 7725 ft | 247 kts | 281° |
| 2026-05-08 00:53 | 33.67807 | -84.62921 | 8600 ft | 244 kts | 281° |
| 2026-05-08 00:53 | 33.68138 | -84.64899 | 9394 ft | 244 kts | 281° |
| 2026-05-08 00:53 | 33.68422 | -84.66587 | 10068 ft | 244 kts | 280° |
| 2026-05-08 00:53 | 33.68706 | -84.68272 | 10538 ft | 252 kts | 280° |
| 2026-05-08 00:54 | 33.69023 | -84.70156 | 10882 ft | 266 kts | 280° |
| 2026-05-08 00:54 | 33.69328 | -84.71960 | 11201 ft | 278 kts | 280° |
| 2026-05-08 00:54 | 33.69668 | -84.73965 | 11833 ft | 281 kts | 280° |
| 2026-05-08 00:54 | 33.69979 | -84.75703 | 12483 ft | 280 kts | 282° |
| 2026-05-08 00:55 | 33.70486 | -84.77913 | 13221 ft | 282 kts | 285° |
| 2026-05-08 00:55 | 33.71086 | -84.80141 | 13959 ft | 285 kts | 286° |
| 2026-05-08 00:55 | 33.71723 | -84.82406 | 14740 ft | 286 kts | 285° |
| 2026-05-08 00:55 | 33.72343 | -84.84646 | 15499 ft | 287 kts | 285° |
| 2026-05-08 00:56 | 33.72971 | -84.86953 | 16237 ft | 289 kts | 284° |
| 2026-05-08 00:56 | 33.73592 | -84.89255 | 16916 ft | 292 kts | 284° |
| 2026-05-08 00:56 | 33.74208 | -84.91537 | 17651 ft | 292 kts | 284° |
| 2026-05-08 00:56 | 33.74839 | -84.93881 | 18294 ft | 294 kts | 284° |
| 2026-05-08 00:57 | 33.75462 | -84.96203 | 18917 ft | 297 kts | 284° |
| 2026-05-08 00:57 | 33.76101 | -84.98593 | 19512 ft | 300 kts | 284° |
| 2026-05-08 00:57 | 33.76738 | -85.00969 | 20081 ft | 303 kts | 284° |
| 2026-05-08 00:57 | 33.77390 | -85.03400 | 20678 ft | 305 kts | 284° |
| 2026-05-08 00:58 | 33.78039 | -85.05820 | 21249 ft | 307 kts | 284° |
| 2026-05-08 00:58 | 33.78696 | -85.08273 | 21811 ft | 308 kts | 284° |
| 2026-05-08 00:58 | 33.79355 | -85.10735 | 22276 ft | 312 kts | 284° |
| 2026-05-08 00:58 | 33.80024 | -85.13236 | 22796 ft | 314 kts | 284° |
| 2026-05-08 00:59 | 33.80690 | -85.15734 | 23297 ft | 316 kts | 284° |
| 2026-05-08 00:59 | 33.81346 | -85.18294 | 23792 ft | 318 kts | 282° |
| 2026-05-08 00:59 | 33.81835 | -85.20882 | 24293 ft | 317 kts | 277° |
| 2026-05-08 00:59 | 33.82087 | -85.23521 | 24784 ft | 318 kts | 273° |
| 2026-05-08 01:00 | 33.82220 | -85.26214 | 25193 ft | 322 kts | 272° |
| 2026-05-08 01:00 | 33.82321 | -85.28913 | 25645 ft | 324 kts | 271° |
| 2026-05-08 01:00 | 33.82423 | -85.31588 | 26155 ft | 323 kts | 271° |
| 2026-05-08 01:00 | 33.82531 | -85.34305 | 26511 ft | 327 kts | 271° |
| 2026-05-08 01:01 | 33.82645 | -85.37040 | 26978 ft | 328 kts | 271° |
| 2026-05-08 01:01 | 33.82764 | -85.39807 | 27395 ft | 330 kts | 271° |
| 2026-05-08 01:01 | 33.82882 | -85.42564 | 27749 ft | 333 kts | 271° |
| 2026-05-08 01:01 | 33.83004 | -85.45346 | 28182 ft | 333 kts | 271° |
| 2026-05-08 01:02 | 33.83126 | -85.48134 | 28572 ft | 335 kts | 271° |
| 2026-05-08 01:02 | 33.83250 | -85.50955 | 28895 ft | 338 kts | 271° |
| 2026-05-08 01:02 | 33.83371 | -85.53770 | 29290 ft | 339 kts | 271° |
| 2026-05-08 01:02 | 33.83493 | -85.56642 | 29633 ft | 341 kts | 271° |
| 2026-05-08 01:03 | 33.83613 | -85.59485 | 30051 ft | 341 kts | 271° |
| 2026-05-08 01:03 | 33.83767 | -85.62316 | 30552 ft | 339 kts | 272° |
| 2026-05-08 01:03 | 33.84080 | -85.65081 | 31125 ft | 337 kts | 277° |
| 2026-05-08 01:03 | 33.84622 | -85.67640 | 31738 ft | 333 kts | 281° |
| 2026-05-08 01:04 | 33.85306 | -85.70218 | 32000 ft | 335 kts | 282° |
| 2026-05-08 01:04 | 33.86746 | -85.75085 | 32028 ft | 335 kts | 284° |
| 2026-05-08 01:05 | 33.88361 | -85.80416 | 32031 ft | 332 kts | 284° |
| 2026-05-08 01:05 | 33.89910 | -85.85648 | 32033 ft | 333 kts | 284° |
| 2026-05-08 01:06 | 33.91457 | -85.90942 | 32029 ft | 333 kts | 284° |
| 2026-05-08 01:06 | 33.92986 | -85.96208 | 32036 ft | 332 kts | 283° |
| 2026-05-08 01:07 | 33.94507 | -86.01458 | 32035 ft | 332 kts | 283° |
| 2026-05-08 01:07 | 33.96044 | -86.06773 | 32032 ft | 335 kts | 284° |
| 2026-05-08 01:08 | 33.97572 | -86.12073 | 32037 ft | 335 kts | 284° |
| 2026-05-08 01:08 | 33.99103 | -86.17389 | 32039 ft | 335 kts | 284° |
| 2026-05-08 01:09 | 34.00631 | -86.22694 | 32044 ft | 335 kts | 283° |
| 2026-05-08 01:09 | 34.02152 | -86.28020 | 32038 ft | 335 kts | 284° |
| 2026-05-08 01:10 | 34.03671 | -86.33316 | 32036 ft | 335 kts | 283° |
| 2026-05-08 01:10 | 34.05190 | -86.38614 | 32037 ft | 333 kts | 283° |
| 2026-05-08 01:11 | 34.06705 | -86.43909 | 32036 ft | 334 kts | 283° |
| 2026-05-08 01:11 | 34.08211 | -86.49206 | 32034 ft | 334 kts | 283° |
| 2026-05-08 01:12 | 34.09722 | -86.54531 | 32036 ft | 332 kts | 284° |
| 2026-05-08 01:12 | 34.10809 | -86.58360 | 32038 ft | 333 kts | 283° |
| 2026-05-08 01:13 | 34.11943 | -86.62363 | 32032 ft | 326 kts | 283° |
| 2026-05-08 01:13 | 34.13004 | -86.66099 | 32040 ft | 325 kts | 282° |
| 2026-05-08 01:14 | 34.14154 | -86.70203 | 32039 ft | 330 kts | 283° |
| 2026-05-08 01:14 | 34.15375 | -86.74502 | 32039 ft | 324 kts | 282° |
| 2026-05-08 01:15 | 34.16946 | -86.80094 | 32040 ft | 335 kts | 282° |
| 2026-05-08 01:15 | 34.18427 | -86.85357 | 32045 ft | 331 kts | 283° |
| 2026-05-08 01:16 | 34.19905 | -86.90642 | 32042 ft | 334 kts | 283° |
| 2026-05-08 01:16 | 34.21408 | -86.95982 | 32043 ft | 331 kts | 283° |
| 2026-05-08 01:17 | 34.22889 | -87.01252 | 32045 ft | 331 kts | 282° |
| 2026-05-08 01:17 | 34.24374 | -87.06572 | 32047 ft | 333 kts | 282° |
| 2026-05-08 01:18 | 34.25847 | -87.11856 | 32053 ft | 331 kts | 282° |
| 2026-05-08 01:18 | 34.27321 | -87.17154 | 32048 ft | 330 kts | 283° |
| 2026-05-08 01:19 | 34.28786 | -87.22433 | 32039 ft | 333 kts | 283° |
| 2026-05-08 01:19 | 34.30258 | -87.27773 | 32042 ft | 331 kts | 282° |
| 2026-05-08 01:20 | 34.31725 | -87.33064 | 32044 ft | 329 kts | 282° |
| 2026-05-08 01:20 | 34.33186 | -87.38352 | 32050 ft | 332 kts | 282° |
| 2026-05-08 01:21 | 34.34627 | -87.43581 | 32049 ft | 321 kts | 282° |
| 2026-05-08 01:21 | 34.36033 | -87.48681 | 31924 ft | 320 kts | 282° |
| 2026-05-08 01:21 | 34.36736 | -87.51265 | 31794 ft | 330 kts | 283° |
| 2026-05-08 01:22 | 34.37463 | -87.53944 | 31622 ft | 341 kts | 282° |
| 2026-05-08 01:22 | 34.38225 | -87.56746 | 31432 ft | 350 kts | 282° |
| 2026-05-08 01:22 | 34.38999 | -87.59571 | 31167 ft | 355 kts | 282° |
| 2026-05-08 01:22 | 34.39781 | -87.62423 | 30903 ft | 356 kts | 282° |
| 2026-05-08 01:23 | 34.40561 | -87.65261 | 30640 ft | 355 kts | 283° |
| 2026-05-08 01:23 | 34.41087 | -87.67181 | 30463 ft | 355 kts | 282° |
| 2026-05-08 01:23 | 34.41755 | -87.69622 | 30235 ft | 357 kts | 282° |
| 2026-05-08 01:23 | 34.42281 | -87.71546 | 30103 ft | 356 kts | 282° |
| 2026-05-08 01:24 | 34.42824 | -87.73537 | 30067 ft | 354 kts | 282° |
| 2026-05-08 01:24 | 34.44235 | -87.78728 | 30052 ft | 349 kts | 283° |
| 2026-05-08 01:25 | 34.45737 | -87.84244 | 30054 ft | 353 kts | 283° |
| 2026-05-08 01:25 | 34.47280 | -87.89949 | 30051 ft | 354 kts | 283° |
| 2026-05-08 01:26 | 34.48741 | -87.95353 | 30052 ft | 358 kts | 282° |
| 2026-05-08 01:26 | 34.50284 | -88.01058 | 30050 ft | 353 kts | 282° |
| 2026-05-08 01:27 | 34.51797 | -88.06678 | 30051 ft | 354 kts | 283° |
| 2026-05-08 01:27 | 34.53327 | -88.12375 | 30051 ft | 353 kts | 282° |
| 2026-05-08 01:28 | 34.54849 | -88.18052 | 30051 ft | 353 kts | 282° |
| 2026-05-08 01:28 | 34.56364 | -88.23730 | 30049 ft | 351 kts | 283° |
| 2026-05-08 01:29 | 34.57884 | -88.29424 | 30050 ft | 354 kts | 282° |
| 2026-05-08 01:29 | 34.59398 | -88.35098 | 30049 ft | 354 kts | 282° |
| 2026-05-08 01:30 | 34.60909 | -88.40774 | 30049 ft | 352 kts | 283° |
| 2026-05-08 01:30 | 34.62421 | -88.46469 | 30052 ft | 351 kts | 282° |
| 2026-05-08 01:31 | 34.63924 | -88.52147 | 30049 ft | 352 kts | 283° |
| 2026-05-08 01:31 | 34.65407 | -88.57772 | 30052 ft | 352 kts | 283° |
| 2026-05-08 01:32 | 34.66904 | -88.63452 | 30051 ft | 354 kts | 282° |
| 2026-05-08 01:32 | 34.68216 | -88.68433 | 30051 ft | 355 kts | 282° |
| 2026-05-08 01:33 | 34.69701 | -88.72625 | 30050 ft | 362 kts | 292° |
| 2026-05-08 01:33 | 34.71625 | -88.75946 | 30053 ft | 352 kts | 297° |
| 2026-05-08 01:33 | 34.73360 | -88.78587 | 30050 ft | 336 kts | 298° |
| 2026-05-08 01:34 | 34.75613 | -88.82011 | 30051 ft | 326 kts | 297° |
| 2026-05-08 01:34 | 34.78377 | -88.86395 | 30051 ft | 332 kts | 296° |
| 2026-05-08 01:35 | 34.81133 | -88.90855 | 30051 ft | 326 kts | 297° |
| 2026-05-08 01:35 | 34.83866 | -88.95315 | 30051 ft | 327 kts | 296° |
| 2026-05-08 01:36 | 34.86566 | -88.99741 | 30050 ft | 328 kts | 296° |
| 2026-05-08 01:36 | 34.89290 | -89.04201 | 30048 ft | 326 kts | 296° |
| 2026-05-08 01:37 | 34.91997 | -89.08645 | 30054 ft | 326 kts | 295° |
| 2026-05-08 01:37 | 34.94712 | -89.13094 | 30047 ft | 328 kts | 296° |
| 2026-05-08 01:38 | 34.97428 | -89.17556 | 30053 ft | 326 kts | 296° |
| 2026-05-08 01:38 | 35.00120 | -89.21987 | 30049 ft | 324 kts | 297° |
| 2026-05-08 01:39 | 35.02787 | -89.26379 | 30049 ft | 323 kts | 297° |
| 2026-05-08 01:39 | 35.05494 | -89.30860 | 30052 ft | 327 kts | 296° |
| 2026-05-08 01:40 | 35.08193 | -89.35310 | 30052 ft | 323 kts | 296° |
| 2026-05-08 01:40 | 35.10670 | -89.39410 | 30057 ft | 324 kts | 296° |
| 2026-05-08 01:41 | 35.12331 | -89.42171 | 30058 ft | 327 kts | 296° |
| 2026-05-08 01:41 | 35.13847 | -89.44681 | 30056 ft | 325 kts | 296° |
| 2026-05-08 01:42 | 35.16826 | -89.49617 | 30055 ft | 327 kts | 296° |
| 2026-05-08 01:42 | 35.18749 | -89.52808 | 30059 ft | 324 kts | 296° |
| 2026-05-08 01:43 | 35.24744 | -89.62780 | 30056 ft | 326 kts | 297° |
| 2026-05-08 01:44 | 35.27008 | -89.66554 | 30057 ft | 326 kts | 296° |
| 2026-05-08 01:44 | 35.29153 | -89.70146 | 30055 ft | 328 kts | 296° |
| 2026-05-08 01:45 | 35.31393 | -89.73886 | 30056 ft | 324 kts | 296° |
| 2026-05-08 01:45 | 35.34094 | -89.78402 | 30057 ft | 325 kts | 296° |
| 2026-05-08 01:46 | 35.36763 | -89.82879 | 30060 ft | 325 kts | 296° |
| 2026-05-08 01:46 | 35.39474 | -89.87434 | 30061 ft | 326 kts | 297° |
| 2026-05-08 01:47 | 35.42146 | -89.91921 | 30055 ft | 327 kts | 296° |
| 2026-05-08 01:47 | 35.44855 | -89.96480 | 30053 ft | 328 kts | 296° |
| 2026-05-08 01:48 | 35.48879 | -90.03245 | 30056 ft | 328 kts | 296° |
| 2026-05-08 01:48 | 35.51573 | -90.07803 | 30054 ft | 328 kts | 296° |
| 2026-05-08 01:49 | 35.54266 | -90.12358 | 30051 ft | 329 kts | 296° |
| 2026-05-08 01:49 | 35.56956 | -90.16894 | 30050 ft | 327 kts | 296° |
| 2026-05-08 01:50 | 35.59631 | -90.21426 | 30037 ft | 326 kts | 296° |
| 2026-05-08 01:50 | 35.62312 | -90.25972 | 30040 ft | 326 kts | 296° |
| 2026-05-08 01:51 | 35.64961 | -90.30464 | 30041 ft | 327 kts | 296° |
| 2026-05-08 01:51 | 35.67643 | -90.35023 | 30043 ft | 327 kts | 296° |
| 2026-05-08 01:52 | 35.70318 | -90.39579 | 30039 ft | 326 kts | 296° |
| 2026-05-08 01:52 | 35.72984 | -90.44133 | 30040 ft | 329 kts | 296° |
| 2026-05-08 01:53 | 35.75664 | -90.48704 | 30039 ft | 327 kts | 296° |
| 2026-05-08 01:53 | 35.78345 | -90.53292 | 30040 ft | 327 kts | 296° |
| 2026-05-08 01:54 | 35.81002 | -90.57840 | 30044 ft | 327 kts | 296° |
| 2026-05-08 01:54 | 35.83686 | -90.62442 | 30046 ft | 327 kts | 296° |
| 2026-05-08 01:55 | 35.86014 | -90.66428 | 30045 ft | 327 kts | 296° |
| 2026-05-08 01:55 | 35.87624 | -90.69196 | 30041 ft | 328 kts | 295° |
| 2026-05-08 01:56 | 35.89996 | -90.73275 | 30039 ft | 327 kts | 296° |
| 2026-05-08 01:56 | 35.92638 | -90.77820 | 30039 ft | 328 kts | 296° |
| 2026-05-08 01:57 | 35.95289 | -90.82388 | 30034 ft | 327 kts | 295° |
| 2026-05-08 01:57 | 35.97936 | -90.86961 | 30034 ft | 327 kts | 296° |
| 2026-05-08 01:58 | 36.00589 | -90.91534 | 30036 ft | 327 kts | 296° |
| 2026-05-08 01:58 | 36.03239 | -90.96123 | 30037 ft | 327 kts | 295° |
| 2026-05-08 01:59 | 36.05893 | -91.00725 | 30036 ft | 330 kts | 295° |
| 2026-05-08 01:59 | 36.08544 | -91.05322 | 30037 ft | 328 kts | 296° |
| 2026-05-08 02:00 | 36.11192 | -91.09927 | 30036 ft | 331 kts | 295° |
| 2026-05-08 02:00 | 36.13855 | -91.14565 | 30037 ft | 329 kts | 296° |
| 2026-05-08 02:01 | 36.16503 | -91.19177 | 30028 ft | 329 kts | 296° |
| 2026-05-08 02:01 | 36.19072 | -91.23653 | 30027 ft | 328 kts | 296° |
| 2026-05-08 02:02 | 36.21733 | -91.28312 | 30033 ft | 331 kts | 296° |
| 2026-05-08 02:02 | 36.24377 | -91.32928 | 30035 ft | 330 kts | 296° |
| 2026-05-08 02:03 | 36.27052 | -91.37617 | 30041 ft | 334 kts | 296° |
| 2026-05-08 02:03 | 36.29727 | -91.42306 | 30037 ft | 331 kts | 297° |
| 2026-05-08 02:04 | 36.32394 | -91.46996 | 30030 ft | 334 kts | 296° |
| 2026-05-08 02:04 | 36.35067 | -91.51697 | 30038 ft | 333 kts | 297° |
| 2026-05-08 02:05 | 36.37750 | -91.56416 | 30041 ft | 333 kts | 297° |
| 2026-05-08 02:05 | 36.40419 | -91.61129 | 30039 ft | 335 kts | 296° |
| 2026-05-08 02:06 | 36.43096 | -91.65856 | 30045 ft | 334 kts | 296° |
| 2026-05-08 02:06 | 36.45541 | -91.70179 | 30041 ft | 334 kts | 296° |
| 2026-05-08 02:07 | 36.47597 | -91.73817 | 30041 ft | 333 kts | 296° |
| 2026-05-08 02:07 | 36.50491 | -91.78951 | 30047 ft | 337 kts | 296° |
| 2026-05-08 02:08 | 36.53173 | -91.83708 | 30039 ft | 336 kts | 296° |
| 2026-05-08 02:08 | 36.55882 | -91.88529 | 30042 ft | 338 kts | 296° |
| 2026-05-08 02:09 | 36.58564 | -91.93295 | 30047 ft | 337 kts | 296° |
| 2026-05-08 02:09 | 36.61255 | -91.98090 | 30044 ft | 338 kts | 296° |
| 2026-05-08 02:10 | 36.63955 | -92.02915 | 30044 ft | 339 kts | 297° |
| 2026-05-08 02:10 | 36.66643 | -92.07719 | 30045 ft | 339 kts | 297° |
| 2026-05-08 02:11 | 36.69343 | -92.12551 | 30056 ft | 337 kts | 297° |
| 2026-05-08 02:11 | 36.72011 | -92.17338 | 30053 ft | 341 kts | 297° |
| 2026-05-08 02:12 | 36.74719 | -92.22205 | 30043 ft | 339 kts | 297° |
| 2026-05-08 02:12 | 36.77417 | -92.27052 | 30054 ft | 342 kts | 297° |
| 2026-05-08 02:13 | 36.80141 | -92.31961 | 30055 ft | 339 kts | 297° |
| 2026-05-08 02:13 | 36.82857 | -92.36858 | 30046 ft | 344 kts | 297° |
| 2026-05-08 02:14 | 36.85566 | -92.41741 | 30040 ft | 341 kts | 297° |
| 2026-05-08 02:14 | 36.88269 | -92.46634 | 30055 ft | 343 kts | 297° |
| 2026-05-08 02:15 | 36.90993 | -92.51569 | 30044 ft | 345 kts | 297° |
| 2026-05-08 02:15 | 36.93715 | -92.56506 | 30047 ft | 345 kts | 297° |
| 2026-05-08 02:16 | 36.96437 | -92.61454 | 30046 ft | 344 kts | 297° |
| 2026-05-08 02:16 | 36.99150 | -92.66382 | 30043 ft | 344 kts | 297° |